Portada
METAR-TAF:

METAR-TAF

Aeroports :

Los Mochis, Mèxic

latitud: 25-41N, longitud: 109-05W, altitud: 4 m

Observació

L'informe es va fer fa 7 hores i 55 minuts, a les 04:40 UTC
Vent calma
Temperatura 28°C
Humitat 70%
Pressió 1009 hPa
Visibilitat: 16.1 km
Cel clar

METAR: MMLM 020440Z 00000KT 10SM SKC 28/22 A2979

Hora: 06:35 (12:35 UTC)

Pronòstic

L'informe es va fer fa 7 hores i 7 minuts, a les 05:28 UTC
Pronòstic vàlid del 02 a les 06 UTC al 03 a les 06 UTC
Vent 5 kt del Sud-Oest
Visibilitat: 10 km
Núvols disperses a una alçada de 25000 ft
A partir de les 02 a les 1800 UTC
Vent 10 kt del Oest/Sud-Oest
Visibilitat: 10 km
Núvols disperses a una alçada de 2000 ft
Cel ennuvolat a una alçada de 20000 ft
A partir de les 03 a les 0200 UTC
Vent 5 kt del Oest/Sud-Oest
Visibilitat: 10 km
Núvols disperses a una alçada de 2000 ft
Cel ennuvolat a una alçada de 10000 ft

TAF: MMLM 020528Z 0206/0306 23005KT P6SM SCT250 FM021800 24010KT P6SM SCT020 BKN200 FM030200 24005KT P6SM SCT020 BKN100

Observacions i pronòstics meteorològics de més de 4000 aeroports (METAR i TAF).

Les estacions disponibles són els punts grocs i vermells al mapa.

Posi el ratolí al punt desitjat per veure el nom de l'estació.

Feu clic per veure les observacions i els pronòstics meteorològics.

Per canviar el mapa: feu clic els botons verds amb una creu de color negre per apropar; al botó verd amb un guió per allunyar la imatge; o en les fletxes verdes per a mapes adjacents.


METAR-TAF: